createdAt,value
2023-03-27T00:00:06.821Z,46.57
2023-03-27T00:01:06.819Z,46.57
2023-03-27T00:02:06.866Z,46.73
2023-03-27T00:03:06.944Z,48.18
2023-03-27T00:04:06.841Z,46.89
2023-03-27T00:05:06.778Z,46.57
2023-03-27T00:06:06.802Z,47.53
2023-03-27T00:07:06.785Z,47.70
2023-03-27T00:08:06.801Z,47.21
2023-03-27T00:09:06.747Z,46.73
2023-03-27T00:10:06.752Z,48.02
2023-03-27T00:11:06.790Z,47.70
2023-03-27T00:12:06.724Z,48.34
2023-03-27T00:13:06.728Z,47.70
2023-03-27T00:14:06.726Z,47.53
2023-03-27T00:15:06.712Z,48.66
2023-03-27T00:16:06.721Z,46.73
2023-03-27T00:17:06.692Z,47.21
2023-03-27T00:18:06.773Z,47.37
2023-03-27T00:19:06.673Z,46.89
2023-03-27T00:20:06.691Z,46.57
2023-03-27T00:21:06.697Z,46.57
2023-03-27T00:22:06.674Z,47.21
2023-03-27T00:23:06.666Z,46.73
2023-03-27T00:24:06.711Z,46.57
2023-03-27T00:25:06.642Z,46.41
2023-03-27T00:26:06.652Z,46.57
2023-03-27T00:27:06.692Z,46.73
2023-03-27T00:28:06.628Z,46.25
2023-03-27T00:29:06.633Z,46.89
2023-03-27T00:30:06.628Z,46.89
2023-03-27T00:31:06.654Z,47.05
2023-03-27T00:32:06.640Z,46.57
2023-03-27T00:33:06.667Z,46.73
2023-03-27T00:34:06.604Z,46.57
2023-03-27T00:35:06.609Z,46.73
2023-03-27T00:36:06.690Z,46.89
2023-03-27T00:37:06.573Z,46.73
2023-03-27T00:38:06.620Z,47.05
2023-03-27T00:39:06.564Z,46.57
2023-03-27T00:40:06.584Z,46.57
2023-03-27T00:41:06.567Z,45.92
2023-03-27T00:42:06.531Z,46.57
2023-03-27T00:43:06.541Z,46.25
2023-03-27T00:44:06.537Z,46.41
2023-03-27T00:45:06.558Z,46.89
2023-03-27T00:46:06.546Z,46.41
2023-03-27T00:47:06.495Z,47.70
2023-03-27T00:48:06.510Z,46.89
2023-03-27T00:49:06.523Z,47.53
2023-03-27T00:50:06.530Z,47.86
2023-03-27T00:51:06.477Z,47.05
2023-03-27T00:52:06.458Z,46.73
2023-03-27T00:53:06.458Z,47.21
2023-03-27T00:54:06.485Z,46.73
2023-03-27T00:55:06.493Z,47.21
2023-03-27T00:56:06.453Z,47.53
2023-03-27T00:57:06.487Z,47.70
2023-03-27T00:58:06.434Z,48.18
2023-03-27T00:59:06.439Z,47.37
2023-03-27T01:00:07.621Z,47.53
2023-03-27T01:01:06.518Z,47.53
2023-03-27T01:02:06.413Z,47.05
2023-03-27T01:03:06.501Z,47.21
2023-03-27T01:04:06.400Z,47.21
2023-03-27T01:05:06.378Z,47.70
2023-03-27T01:06:06.397Z,47.05
2023-03-27T01:07:06.381Z,46.89
2023-03-27T01:08:06.363Z,47.05
2023-03-27T01:09:06.343Z,47.05
2023-03-27T01:10:06.340Z,47.70
2023-03-27T01:11:06.402Z,47.70
2023-03-27T01:12:06.343Z,47.05
2023-03-27T01:13:06.339Z,47.37
2023-03-27T01:14:06.338Z,47.21
2023-03-27T01:15:06.316Z,47.05
2023-03-27T01:16:06.331Z,47.37
2023-03-27T01:17:06.335Z,47.05
2023-03-27T01:18:06.362Z,46.73
2023-03-27T01:19:06.289Z,46.73
2023-03-27T01:20:06.275Z,48.34
2023-03-27T01:21:06.280Z,47.05
2023-03-27T01:22:06.285Z,47.05
2023-03-27T01:23:06.283Z,46.89
2023-03-27T01:24:06.263Z,46.41
2023-03-27T01:25:06.276Z,47.21
2023-03-27T01:26:06.249Z,47.21
2023-03-27T01:27:06.270Z,47.21
2023-03-27T01:28:06.234Z,47.21
2023-03-27T01:29:06.230Z,47.37
2023-03-27T01:30:06.203Z,46.89
2023-03-27T01:31:06.234Z,47.53
2023-03-27T01:32:06.208Z,47.21
2023-03-27T01:33:06.267Z,47.70
2023-03-27T01:34:06.219Z,47.37
2023-03-27T01:35:06.172Z,48.02
2023-03-27T01:36:06.177Z,47.37
2023-03-27T01:37:06.163Z,46.41
2023-03-27T01:38:06.187Z,47.37
2023-03-27T01:39:06.189Z,46.89
2023-03-27T01:40:06.139Z,47.53
2023-03-27T01:41:06.147Z,47.05
2023-03-27T01:42:06.149Z,47.05
2023-03-27T01:43:06.135Z,47.37
2023-03-27T01:44:06.181Z,47.21
2023-03-27T01:45:06.106Z,48.66
2023-03-27T01:46:07.101Z,47.53
2023-03-27T01:47:06.091Z,47.21
2023-03-27T01:48:06.097Z,46.89
2023-03-27T01:49:06.101Z,47.37
2023-03-27T01:50:06.124Z,46.57
2023-03-27T01:51:06.110Z,48.02
2023-03-27T01:52:06.081Z,47.86
2023-03-27T01:53:06.073Z,47.21
2023-03-27T01:54:06.059Z,47.21
2023-03-27T01:55:06.101Z,49.95
2023-03-27T01:56:06.062Z,48.02
2023-03-27T01:57:06.073Z,47.05
2023-03-27T01:58:06.046Z,47.05
2023-03-27T01:59:06.052Z,47.05
2023-03-27T02:00:18.410Z,47.21
2023-03-27T02:01:07.266Z,46.89
2023-03-27T02:02:05.992Z,47.37
2023-03-27T02:03:06.024Z,47.70
2023-03-27T02:04:06.019Z,46.89
2023-03-27T02:05:06.055Z,47.70
2023-03-27T02:06:05.994Z,47.70
2023-03-27T02:07:05.995Z,48.66
2023-03-27T02:08:05.982Z,48.66
2023-03-27T02:09:05.959Z,48.50
2023-03-27T02:10:05.982Z,48.18
2023-03-27T02:11:05.961Z,50.11
2023-03-27T02:12:05.921Z,48.18
2023-03-27T02:13:05.934Z,47.70
2023-03-27T02:14:05.923Z,48.02
2023-03-27T02:15:23.982Z,48.34
2023-03-27T02:16:06.971Z,47.70
2023-03-27T02:17:05.907Z,47.70
2023-03-27T02:18:05.929Z,46.73
2023-03-27T02:19:05.902Z,47.53
2023-03-27T02:20:05.907Z,47.53
2023-03-27T02:21:05.906Z,47.86
2023-03-27T02:22:05.924Z,47.53
2023-03-27T02:23:05.869Z,47.53
2023-03-27T02:24:05.913Z,47.53
2023-03-27T02:25:05.909Z,47.86
2023-03-27T02:26:05.860Z,47.37
2023-03-27T02:27:05.830Z,47.37
2023-03-27T02:28:05.838Z,47.53
2023-03-27T02:29:05.858Z,48.34
2023-03-27T02:30:05.848Z,48.50
2023-03-27T02:31:33.227Z,48.66
2023-03-27T02:32:06.879Z,47.70
2023-03-27T02:33:05.857Z,47.37
2023-03-27T02:34:05.845Z,47.70
2023-03-27T02:35:05.838Z,48.98
2023-03-27T02:36:05.860Z,47.70
2023-03-27T02:37:05.807Z,47.21
2023-03-27T02:38:05.761Z,47.21
2023-03-27T02:39:05.770Z,47.70
2023-03-27T02:40:05.781Z,48.02
2023-03-27T02:41:05.770Z,48.18
2023-03-27T02:42:05.785Z,47.70
2023-03-27T02:43:05.761Z,47.05
2023-03-27T02:44:05.806Z,47.05
2023-03-27T02:45:05.766Z,46.57
2023-03-27T02:46:05.782Z,46.73
2023-03-27T02:47:05.717Z,47.53
2023-03-27T02:48:05.748Z,47.21
2023-03-27T02:49:05.741Z,48.34
2023-03-27T02:50:05.693Z,48.18
2023-03-27T02:51:05.681Z,47.21
2023-03-27T02:52:05.681Z,47.37
2023-03-27T02:53:05.678Z,48.66
2023-03-27T02:54:05.680Z,48.02
2023-03-27T02:55:05.660Z,47.70
2023-03-27T02:56:05.662Z,47.37
2023-03-27T02:57:05.678Z,47.70
2023-03-27T02:58:05.650Z,47.53
2023-03-27T02:59:05.661Z,48.66
2023-03-27T03:00:05.625Z,47.53
2023-03-27T03:01:05.640Z,47.37
2023-03-27T03:02:05.662Z,47.05
2023-03-27T03:03:05.766Z,47.37
2023-03-27T03:04:05.622Z,48.02
2023-03-27T03:05:05.640Z,47.53
2023-03-27T03:06:05.620Z,47.70
2023-03-27T03:07:05.578Z,47.21
2023-03-27T03:08:05.598Z,47.37
2023-03-27T03:09:05.592Z,47.05
2023-03-27T03:10:05.584Z,47.21
2023-03-27T03:11:05.564Z,47.05
2023-03-27T03:12:05.593Z,46.89
2023-03-27T03:13:05.553Z,47.05
2023-03-27T03:14:05.557Z,47.21
2023-03-27T03:15:05.542Z,47.70
2023-03-27T03:16:05.529Z,47.37
2023-03-27T03:17:05.554Z,46.89
2023-03-27T03:18:05.555Z,48.18
2023-03-27T03:19:05.530Z,47.21
2023-03-27T03:20:05.597Z,47.37
2023-03-27T03:21:05.503Z,47.53
2023-03-27T03:22:05.530Z,48.18
2023-03-27T03:23:05.481Z,47.86
2023-03-27T03:24:05.467Z,48.02
2023-03-27T03:25:05.504Z,47.05
2023-03-27T03:26:05.464Z,46.73
2023-03-27T03:27:05.480Z,47.21
2023-03-27T03:28:05.462Z,48.50
2023-03-27T03:29:05.444Z,48.50
2023-03-27T03:30:05.457Z,48.18
2023-03-27T03:31:05.489Z,47.86
2023-03-27T03:32:05.446Z,47.05
2023-03-27T03:33:05.461Z,47.70
2023-03-27T03:34:05.410Z,48.18
2023-03-27T03:35:05.441Z,47.21
2023-03-27T03:36:05.465Z,47.70
2023-03-27T03:37:05.385Z,48.34
2023-03-27T03:38:05.373Z,47.53
2023-03-27T03:39:05.408Z,47.70
2023-03-27T03:40:05.378Z,47.21
2023-03-27T03:41:05.388Z,46.73
2023-03-27T03:42:05.351Z,47.05
2023-03-27T03:43:05.351Z,46.89
2023-03-27T03:44:05.351Z,46.89
2023-03-27T03:45:05.368Z,46.89
2023-03-27T03:46:05.378Z,47.37
2023-03-27T03:47:05.388Z,47.05
2023-03-27T03:48:05.388Z,47.21
2023-03-27T03:49:05.315Z,47.21
2023-03-27T03:50:05.331Z,47.05
2023-03-27T03:51:05.327Z,46.57
2023-03-27T03:52:05.399Z,46.41
2023-03-27T03:53:05.326Z,47.05
2023-03-27T03:54:05.416Z,46.89
2023-03-27T03:55:05.296Z,46.73
2023-03-27T03:56:05.275Z,46.89
2023-03-27T03:57:05.357Z,47.21
2023-03-27T03:58:05.400Z,46.73
2023-03-27T03:59:05.300Z,47.05
2023-03-27T04:00:06.257Z,47.53
2023-03-27T04:01:05.255Z,47.70
2023-03-27T04:02:05.247Z,46.89
2023-03-27T04:03:05.290Z,47.86
2023-03-27T04:04:05.209Z,47.86
2023-03-27T04:05:09.234Z,47.53
2023-03-27T04:06:06.209Z,47.86
2023-03-27T04:07:05.196Z,47.53
2023-03-27T04:08:05.219Z,47.70
2023-03-27T04:09:05.207Z,47.21
2023-03-27T04:10:05.192Z,47.37
2023-03-27T04:11:06.199Z,47.70
2023-03-27T04:12:05.152Z,47.21
2023-03-27T04:13:05.188Z,47.70
2023-03-27T04:14:05.176Z,47.21
2023-03-27T04:15:05.227Z,47.37
2023-03-27T04:16:05.190Z,47.37
2023-03-27T04:17:05.130Z,47.70
2023-03-27T04:18:05.378Z,47.37
2023-03-27T04:19:05.158Z,48.02
2023-03-27T04:20:05.111Z,47.05
2023-03-27T04:21:05.148Z,47.70
2023-03-27T04:22:05.116Z,47.37
2023-03-27T04:23:05.119Z,47.70
2023-03-27T04:24:05.136Z,48.02
2023-03-27T04:25:05.074Z,48.66
2023-03-27T04:26:06.196Z,48.18
2023-03-27T04:27:05.068Z,47.70
2023-03-27T04:28:05.058Z,47.53
2023-03-27T04:29:05.092Z,48.02
2023-03-27T04:30:05.061Z,48.66
2023-03-27T04:31:05.069Z,48.02
2023-03-27T04:32:05.062Z,48.34
2023-03-27T04:33:06.292Z,48.18
2023-03-27T04:34:05.041Z,48.34
2023-03-27T04:35:05.044Z,48.50
2023-03-27T04:36:06.055Z,48.50
2023-03-27T04:37:04.994Z,48.98
2023-03-27T04:38:05.004Z,49.15
2023-03-27T04:39:05.016Z,48.66
2023-03-27T04:40:04.985Z,47.86
2023-03-27T04:41:05.046Z,49.47
2023-03-27T04:42:04.958Z,48.98
2023-03-27T04:43:04.997Z,48.50
2023-03-27T04:44:04.985Z,47.70
2023-03-27T04:45:04.972Z,47.53
2023-03-27T04:46:04.984Z,48.66
2023-03-27T04:47:06.759Z,48.98
2023-03-27T04:48:04.957Z,48.18
2023-03-27T04:49:04.938Z,48.18
2023-03-27T04:50:04.906Z,48.02
2023-03-27T04:51:04.962Z,47.53
2023-03-27T04:52:04.979Z,48.34
2023-03-27T04:53:04.923Z,48.02
2023-03-27T04:54:04.998Z,48.02
2023-03-27T04:55:05.037Z,48.66
2023-03-27T04:56:04.890Z,48.02
2023-03-27T04:57:04.940Z,49.15
2023-03-27T04:58:04.871Z,48.50
2023-03-27T04:59:04.884Z,48.98
2023-03-27T05:00:04.870Z,50.76
2023-03-27T05:01:04.905Z,53.01
2023-03-27T05:02:04.879Z,55.27
2023-03-27T05:03:04.994Z,53.01
2023-03-27T05:04:04.872Z,55.11
2023-03-27T05:05:04.868Z,48.18
2023-03-27T05:06:04.800Z,48.82
2023-03-27T05:07:04.887Z,48.02
2023-03-27T05:08:04.800Z,48.34
2023-03-27T05:09:04.796Z,47.53
2023-03-27T05:10:04.793Z,47.86
2023-03-27T05:11:04.783Z,49.31
2023-03-27T05:12:04.802Z,47.70
2023-03-27T05:13:04.771Z,47.53
2023-03-27T05:14:04.747Z,47.53
2023-03-27T05:15:04.860Z,47.86
2023-03-27T05:16:04.759Z,49.31
2023-03-27T05:17:04.730Z,48.50
2023-03-27T05:18:04.823Z,48.98
2023-03-27T05:19:04.727Z,48.50
2023-03-27T05:20:04.732Z,48.82
2023-03-27T05:21:04.726Z,48.18
2023-03-27T05:22:04.693Z,48.50
2023-03-27T05:23:04.769Z,48.02
2023-03-27T05:24:04.694Z,48.66
2023-03-27T05:25:04.671Z,48.18
2023-03-27T05:26:04.672Z,47.70
2023-03-27T05:27:04.679Z,48.82
2023-03-27T05:28:04.709Z,49.47
2023-03-27T05:29:04.681Z,48.82
2023-03-27T05:30:04.657Z,47.53
2023-03-27T05:31:04.640Z,48.18
2023-03-27T05:32:04.616Z,48.34
2023-03-27T05:33:04.683Z,48.18
2023-03-27T05:34:04.696Z,48.18
2023-03-27T05:35:04.604Z,48.66
2023-03-27T05:36:04.690Z,48.02
2023-03-27T05:37:04.602Z,48.18
2023-03-27T05:38:04.593Z,48.34
2023-03-27T05:39:04.603Z,49.31
2023-03-27T05:40:04.567Z,48.34
2023-03-27T05:41:04.588Z,48.98
2023-03-27T05:42:04.578Z,49.15
2023-03-27T05:43:04.547Z,48.18
2023-03-27T05:44:04.562Z,48.34
2023-03-27T05:45:04.822Z,47.37
2023-03-27T05:46:04.620Z,47.37
2023-03-27T05:47:04.527Z,48.18
2023-03-27T05:48:04.646Z,48.82
2023-03-27T05:49:04.521Z,47.53
2023-03-27T05:50:04.559Z,47.70
2023-03-27T05:51:04.542Z,48.34
2023-03-27T05:52:04.511Z,47.70
2023-03-27T05:53:04.516Z,48.98
2023-03-27T05:54:04.495Z,47.70
2023-03-27T05:55:04.499Z,48.66
2023-03-27T05:56:04.511Z,47.53
2023-03-27T05:57:04.553Z,47.53
2023-03-27T05:58:04.450Z,46.73
2023-03-27T05:59:04.458Z,48.66
2023-03-27T06:00:04.470Z,46.73
2023-03-27T06:01:04.446Z,46.73
2023-03-27T06:02:04.515Z,47.21
2023-03-27T06:03:04.554Z,47.37
2023-03-27T06:04:04.573Z,48.50
2023-03-27T06:05:04.426Z,47.53
2023-03-27T06:06:04.497Z,47.86
2023-03-27T06:07:04.444Z,47.21
2023-03-27T06:08:04.397Z,45.92
2023-03-27T06:09:04.387Z,47.70
2023-03-27T06:10:04.397Z,47.05
2023-03-27T06:11:04.373Z,47.86
2023-03-27T06:12:04.365Z,47.21
2023-03-27T06:13:04.424Z,46.25
2023-03-27T06:14:04.370Z,48.18
2023-03-27T06:15:04.358Z,48.18
2023-03-27T06:16:04.373Z,46.41
2023-03-27T06:17:04.348Z,46.73
2023-03-27T06:18:04.437Z,47.70
2023-03-27T06:19:04.340Z,47.37
2023-03-27T06:20:04.300Z,48.82
2023-03-27T06:21:04.316Z,47.37
2023-03-27T06:22:04.334Z,46.25
2023-03-27T06:23:04.341Z,46.08
2023-03-27T06:24:04.428Z,48.18
2023-03-27T06:25:04.305Z,47.37
2023-03-27T06:26:04.282Z,48.18
2023-03-27T06:27:04.292Z,48.02
2023-03-27T06:28:04.318Z,48.02
2023-03-27T06:29:07.822Z,48.34
2023-03-27T06:30:04.276Z,47.70
2023-03-27T06:31:05.320Z,49.31
2023-03-27T06:32:04.305Z,46.41
2023-03-27T06:33:04.372Z,47.70
2023-03-27T06:34:04.263Z,47.21
2023-03-27T06:35:04.276Z,48.02
2023-03-27T06:36:04.249Z,46.08
2023-03-27T06:37:04.222Z,46.25
2023-03-27T06:38:04.227Z,47.05
2023-03-27T06:39:04.286Z,46.41
2023-03-27T06:40:04.239Z,46.41
2023-03-27T06:41:04.246Z,47.05
2023-03-27T06:42:04.191Z,47.70
2023-03-27T06:43:04.280Z,46.73
2023-03-27T06:44:04.203Z,46.73
2023-03-27T06:45:04.185Z,47.21
2023-03-27T06:46:04.260Z,47.53
2023-03-27T06:47:04.225Z,47.21
2023-03-27T06:48:16.875Z,46.89
2023-03-27T06:49:05.169Z,48.18
2023-03-27T06:50:04.155Z,48.02
2023-03-27T06:51:04.182Z,47.21
2023-03-27T06:52:04.397Z,46.41
2023-03-27T06:53:05.909Z,47.21
2023-03-27T06:54:05.149Z,50.27
2023-03-27T06:55:04.148Z,47.53
2023-03-27T06:56:04.150Z,47.21
2023-03-27T06:57:04.176Z,46.41
2023-03-27T06:58:04.162Z,46.89
2023-03-27T06:59:04.113Z,47.21
2023-03-27T07:00:04.149Z,46.08
2023-03-27T07:01:04.142Z,46.57
2023-03-27T07:02:04.150Z,46.41
2023-03-27T07:03:04.170Z,46.41
2023-03-27T07:04:04.114Z,48.18
2023-03-27T07:05:05.099Z,46.57
2023-03-27T07:06:05.189Z,46.73
2023-03-27T07:07:04.120Z,46.41
2023-03-27T07:08:18.616Z,46.89
2023-03-27T07:09:06.075Z,48.50
2023-03-27T07:10:04.052Z,46.73
2023-03-27T07:12:05.057Z,47.70
2023-03-27T07:13:04.027Z,47.70
2023-03-27T07:14:04.098Z,45.92
2023-03-27T07:15:04.011Z,45.44
2023-03-27T07:16:04.149Z,45.44
2023-03-27T07:17:04.067Z,46.08
2023-03-27T07:18:04.027Z,45.60
2023-03-27T07:19:04.007Z,46.08
2023-03-27T07:20:03.992Z,46.73
2023-03-27T07:21:03.998Z,46.41
2023-03-27T07:22:04.002Z,46.25
2023-03-27T07:23:04.219Z,46.41
2023-03-27T07:24:04.014Z,44.79
2023-03-27T07:25:03.944Z,45.44
2023-03-27T07:26:04.016Z,44.96
2023-03-27T07:27:03.934Z,46.25
2023-03-27T07:28:06.297Z,45.92
2023-03-27T07:29:04.933Z,46.41
2023-03-27T07:30:03.961Z,45.76
2023-03-27T07:31:05.059Z,44.96
2023-03-27T07:32:07.146Z,45.44
2023-03-27T07:33:04.987Z,45.12
2023-03-27T07:34:03.983Z,47.37
2023-03-27T07:35:03.926Z,47.21
2023-03-27T07:36:03.930Z,46.25
2023-03-27T07:37:04.029Z,49.47
2023-03-27T07:38:03.899Z,46.25
2023-03-27T07:39:03.890Z,46.57
2023-03-27T07:40:03.952Z,45.92
2023-03-27T07:41:03.922Z,45.92
2023-03-27T07:42:03.873Z,46.25
2023-03-27T07:43:03.909Z,46.41
2023-03-27T07:44:03.904Z,46.73
2023-03-27T07:45:04.548Z,46.08
2023-03-27T07:46:04.886Z,46.08
2023-03-27T07:47:03.891Z,45.60
2023-03-27T07:48:03.884Z,45.60
2023-03-27T07:49:03.830Z,46.25
2023-03-27T07:50:03.895Z,46.89
2023-03-27T07:51:13.422Z,47.37
2023-03-27T07:52:05.988Z,46.73
2023-03-27T07:53:04.826Z,45.76
2023-03-27T07:54:03.843Z,46.73
2023-03-27T07:55:03.840Z,46.73
2023-03-27T07:56:03.884Z,46.57
2023-03-27T07:57:03.875Z,46.41
2023-03-27T07:58:03.961Z,46.08
2023-03-27T07:59:03.780Z,46.08
2023-03-27T08:00:03.814Z,45.12
2023-03-27T08:01:03.813Z,45.60
2023-03-27T08:02:03.819Z,46.25
2023-03-27T08:03:04.006Z,46.41
2023-03-27T08:04:03.895Z,46.25
2023-03-27T08:05:03.876Z,46.08
2023-03-27T08:06:03.743Z,46.57
2023-03-27T08:07:03.773Z,46.25
2023-03-27T08:08:03.750Z,47.37
2023-03-27T08:09:03.764Z,48.18
2023-03-27T08:10:03.736Z,45.76
2023-03-27T08:11:03.715Z,46.08
2023-03-27T08:12:03.746Z,47.86
2023-03-27T08:13:03.737Z,48.50
2023-03-27T08:14:03.754Z,48.50
2023-03-27T08:15:03.697Z,48.18
2023-03-27T08:16:03.679Z,47.21
2023-03-27T08:17:15.010Z,48.66
2023-03-27T08:18:05.721Z,47.21
2023-03-27T08:19:03.701Z,45.92
2023-03-27T08:20:03.694Z,46.89
2023-03-27T08:21:03.679Z,46.57
2023-03-27T08:22:03.657Z,46.25
2023-03-27T08:23:03.681Z,46.41
2023-03-27T08:24:03.696Z,46.08
2023-03-27T08:25:03.627Z,47.21
2023-03-27T08:26:03.636Z,46.73
2023-03-27T08:27:03.629Z,46.57
2023-03-27T08:28:03.659Z,46.89
2023-03-27T08:29:03.660Z,46.57
2023-03-27T08:30:03.602Z,47.53
2023-03-27T08:31:03.699Z,46.73
2023-03-27T08:32:03.595Z,47.86
2023-03-27T08:33:03.769Z,46.73
2023-03-27T08:34:03.644Z,47.37
2023-03-27T08:35:03.632Z,46.57
2023-03-27T08:36:03.658Z,48.82
2023-03-27T08:37:03.582Z,47.53
2023-03-27T08:38:05.833Z,46.73
2023-03-27T08:39:04.546Z,47.21
2023-03-27T08:40:03.545Z,50.11
2023-03-27T08:41:03.542Z,47.53
2023-03-27T08:42:03.555Z,46.73
2023-03-27T08:43:03.552Z,47.21
2023-03-27T08:44:03.530Z,47.21
2023-03-27T08:45:03.575Z,47.37
2023-03-27T08:46:03.619Z,48.66
2023-03-27T08:47:03.500Z,47.53
2023-03-27T08:48:03.538Z,49.31
2023-03-27T08:49:03.496Z,48.02
2023-03-27T08:50:03.481Z,48.34
2023-03-27T08:51:03.513Z,48.02
2023-03-27T08:52:03.500Z,47.21
2023-03-27T08:53:03.485Z,47.53
2023-03-27T08:54:03.460Z,47.21
2023-03-27T08:55:03.492Z,46.89
2023-03-27T08:56:03.458Z,49.95
2023-03-27T08:57:03.489Z,48.50
2023-03-27T08:58:03.440Z,45.92
2023-03-27T08:59:03.449Z,47.86
2023-03-27T09:00:03.475Z,48.18
2023-03-27T09:01:03.434Z,48.98
2023-03-27T09:02:03.463Z,48.82
2023-03-27T09:03:03.463Z,50.27
2023-03-27T09:04:03.492Z,48.18
2023-03-27T09:05:03.456Z,46.57
2023-03-27T09:06:03.412Z,47.05
2023-03-27T09:07:03.440Z,46.73
2023-03-27T09:08:03.383Z,47.21
2023-03-27T09:09:03.404Z,46.57
2023-03-27T09:10:03.407Z,46.08
2023-03-27T09:11:03.386Z,48.66
2023-03-27T09:12:03.421Z,46.73
2023-03-27T09:13:03.393Z,48.02
2023-03-27T09:14:03.401Z,47.53
2023-03-27T09:15:03.496Z,47.37
2023-03-27T09:16:04.408Z,48.50
2023-03-27T09:17:03.353Z,47.05
2023-03-27T09:18:03.486Z,47.37
2023-03-27T09:19:03.389Z,48.98
2023-03-27T09:20:03.454Z,48.18
2023-03-27T09:21:03.332Z,47.70
2023-03-27T09:22:04.068Z,47.70
2023-03-27T09:23:03.992Z,46.89
2023-03-27T09:24:03.431Z,48.02
2023-03-27T09:25:03.975Z,48.34
2023-03-27T09:26:03.290Z,48.18
2023-03-27T09:27:07.463Z,48.66
2023-03-27T09:28:04.324Z,48.98
2023-03-27T09:29:03.314Z,49.47
2023-03-27T09:30:04.871Z,49.47
2023-03-27T09:31:03.295Z,48.98
2023-03-27T09:32:03.313Z,48.82
2023-03-27T09:33:03.288Z,49.31
2023-03-27T09:34:03.316Z,48.02
2023-03-27T09:35:03.265Z,48.50
2023-03-27T09:36:03.293Z,47.70
2023-03-27T09:37:03.234Z,53.98
2023-03-27T09:38:03.226Z,48.66
2023-03-27T09:39:03.312Z,48.18
2023-03-27T09:40:03.265Z,49.15
2023-03-27T09:41:03.229Z,48.82
2023-03-27T09:42:07.426Z,48.50
2023-03-27T09:43:03.195Z,47.21
2023-03-27T09:44:03.245Z,47.37
2023-03-27T09:45:03.205Z,47.21
2023-03-27T09:46:03.196Z,46.25
2023-03-27T09:47:03.225Z,46.73
2023-03-27T09:48:03.208Z,48.02
2023-03-27T09:49:03.159Z,47.86
2023-03-27T09:50:03.183Z,46.25
2023-03-27T09:51:03.200Z,48.82
2023-03-27T09:52:03.153Z,47.05
2023-03-27T09:53:03.135Z,47.70
2023-03-27T09:54:03.144Z,48.34
2023-03-27T09:55:03.170Z,45.92
2023-03-27T09:56:03.393Z,46.08
2023-03-27T09:57:04.189Z,47.86
2023-03-27T09:58:03.154Z,46.25
2023-03-27T09:59:03.122Z,46.73
2023-03-27T10:00:03.140Z,46.41
2023-03-27T10:01:03.151Z,47.05
2023-03-27T10:02:03.098Z,46.57
2023-03-27T10:03:03.158Z,46.89
2023-03-27T10:04:03.127Z,46.25
2023-03-27T10:05:03.107Z,45.92
2023-03-27T10:06:03.110Z,46.41
2023-03-27T10:07:03.092Z,46.57
2023-03-27T10:08:03.071Z,46.25
2023-03-27T10:09:03.071Z,46.89
2023-03-27T10:10:03.097Z,46.25
2023-03-27T10:11:03.087Z,45.92
2023-03-27T10:12:03.172Z,47.05
2023-03-27T10:13:03.062Z,47.70
2023-03-27T10:14:03.041Z,46.73
2023-03-27T10:15:03.039Z,46.41
2023-03-27T10:16:03.085Z,48.34
2023-03-27T10:17:03.142Z,47.37
2023-03-27T10:18:03.039Z,46.73
2023-03-27T10:19:03.007Z,46.73
2023-03-27T10:20:03.015Z,47.37
2023-03-27T10:21:03.026Z,47.86
2023-03-27T10:22:03.041Z,48.18
2023-03-27T10:23:03.034Z,47.53
2023-03-27T10:24:03.009Z,46.57
2023-03-27T10:25:03.043Z,48.18
2023-03-27T10:26:03.004Z,48.82
2023-03-27T10:27:03.014Z,49.95
2023-03-27T10:28:02.993Z,49.63
2023-03-27T10:29:02.982Z,50.60
2023-03-27T10:30:02.982Z,49.95
2023-03-27T10:31:02.949Z,48.82
2023-03-27T10:32:02.994Z,47.70
2023-03-27T10:33:02.971Z,47.21
2023-03-27T10:34:02.981Z,46.73
2023-03-27T10:35:02.951Z,46.25
2023-03-27T10:36:02.989Z,46.25
2023-03-27T10:37:02.977Z,47.53
2023-03-27T10:38:02.936Z,47.86
2023-03-27T10:39:02.938Z,46.89
2023-03-27T10:40:02.948Z,47.70
2023-03-27T10:41:02.896Z,47.05
2023-03-27T10:42:03.070Z,48.02
2023-03-27T10:43:02.946Z,46.57
2023-03-27T10:44:02.908Z,46.41
2023-03-27T10:45:02.939Z,45.12
2023-03-27T10:46:02.893Z,46.08
2023-03-27T10:47:02.935Z,46.57
2023-03-27T10:48:02.900Z,47.05
2023-03-27T10:49:02.899Z,46.25
2023-03-27T10:50:02.880Z,47.37
2023-03-27T10:51:02.907Z,47.21
2023-03-27T10:52:02.880Z,46.08
2023-03-27T10:53:02.962Z,48.34
2023-03-27T10:54:03.002Z,45.12
2023-03-27T10:55:02.850Z,45.28
2023-03-27T10:56:02.871Z,46.08
2023-03-27T10:57:02.937Z,45.92
2023-03-27T10:58:02.840Z,45.76
2023-03-27T10:59:02.865Z,47.70
2023-03-27T11:00:02.844Z,47.53
2023-03-27T11:01:02.865Z,48.18
2023-03-27T11:02:02.849Z,47.37
2023-03-27T11:03:02.843Z,46.89
2023-03-27T11:04:02.850Z,45.92
2023-03-27T11:05:02.858Z,48.50
2023-03-27T11:06:02.929Z,48.98
2023-03-27T11:07:02.831Z,47.53
2023-03-27T11:08:02.791Z,46.73
2023-03-27T11:09:02.777Z,46.25
2023-03-27T11:10:02.818Z,47.53
2023-03-27T11:11:02.795Z,46.89
2023-03-27T11:12:02.787Z,46.73
2023-03-27T11:13:02.767Z,47.37
2023-03-27T11:14:02.848Z,46.41
2023-03-27T11:15:02.829Z,45.92
2023-03-27T11:16:02.976Z,46.25
2023-03-27T11:17:02.790Z,46.25
2023-03-27T11:18:02.787Z,45.92
2023-03-27T11:19:03.745Z,46.08
2023-03-27T11:20:02.768Z,45.76
2023-03-27T11:21:02.755Z,46.57
2023-03-27T11:22:02.722Z,47.53
2023-03-27T11:23:02.719Z,48.18
2023-03-27T11:24:02.794Z,44.79
2023-03-27T11:25:02.804Z,44.96
2023-03-27T11:26:02.736Z,44.96
2023-03-27T11:27:02.719Z,47.05
2023-03-27T11:28:02.717Z,46.73
2023-03-27T11:29:02.735Z,49.15
2023-03-27T11:30:02.682Z,50.27
2023-03-27T11:31:12.001Z,48.02
2023-03-27T11:32:03.752Z,47.70
2023-03-27T11:33:02.742Z,50.60
2023-03-27T11:34:02.685Z,48.82
2023-03-27T11:35:04.234Z,47.53
2023-03-27T11:36:03.686Z,49.79
2023-03-27T11:37:02.634Z,48.02
2023-03-27T11:38:02.686Z,48.98
2023-03-27T11:39:02.641Z,47.37
2023-03-27T11:40:02.653Z,46.41
2023-03-27T11:41:02.626Z,47.21
2023-03-27T11:42:02.635Z,48.18
2023-03-27T11:43:02.671Z,46.73
2023-03-27T11:44:02.647Z,46.73
2023-03-27T11:45:02.616Z,47.21
2023-03-27T11:46:02.744Z,48.18
2023-03-27T11:47:02.607Z,46.89
2023-03-27T11:48:02.719Z,46.25
2023-03-27T11:49:02.599Z,47.21
2023-03-27T11:50:02.606Z,46.08
2023-03-27T11:51:02.596Z,47.37
2023-03-27T11:52:02.567Z,45.12
2023-03-27T11:53:02.600Z,45.92
2023-03-27T11:54:02.594Z,47.53
2023-03-27T11:55:02.605Z,48.98
2023-03-27T11:56:02.584Z,47.53
2023-03-27T11:57:02.665Z,47.70
2023-03-27T11:58:02.569Z,46.08
2023-03-27T11:59:02.557Z,45.28
2023-03-27T12:00:02.522Z,46.41
2023-03-27T12:01:02.546Z,45.76
2023-03-27T12:02:02.653Z,46.25
2023-03-27T12:03:02.580Z,46.89
2023-03-27T12:04:02.581Z,48.34
2023-03-27T12:05:02.500Z,46.89
2023-03-27T12:06:02.534Z,46.57
2023-03-27T12:07:04.967Z,45.60
2023-03-27T12:08:03.475Z,44.96
2023-03-27T12:09:02.479Z,44.79
2023-03-27T12:10:02.555Z,49.47
2023-03-27T12:11:02.462Z,46.25
2023-03-27T12:12:02.450Z,46.73
2023-03-27T12:13:02.466Z,47.05
2023-03-27T12:14:05.492Z,46.08
2023-03-27T12:15:04.463Z,46.25
2023-03-27T12:16:02.435Z,45.44
2023-03-27T12:17:02.418Z,46.41
2023-03-27T12:18:02.484Z,46.73
2023-03-27T12:19:08.122Z,47.05
2023-03-27T12:20:04.396Z,46.41
2023-03-27T12:21:03.773Z,44.63
2023-03-27T12:22:07.151Z,46.25
2023-03-27T12:23:03.397Z,48.50
2023-03-27T12:24:02.385Z,46.89
2023-03-27T12:25:03.398Z,46.08
2023-03-27T12:26:02.432Z,45.76
2023-03-27T12:27:02.361Z,46.73
2023-03-27T12:28:02.358Z,46.41
2023-03-27T12:29:02.388Z,48.82
2023-03-27T12:30:02.366Z,46.25
2023-03-27T12:31:02.347Z,47.53
2023-03-27T12:32:02.360Z,47.21
2023-03-27T12:33:02.413Z,48.34
2023-03-27T12:34:02.428Z,46.73
2023-03-27T12:35:02.319Z,46.89
2023-03-27T12:36:02.392Z,46.08
2023-03-27T12:37:02.320Z,46.41
2023-03-27T12:38:02.337Z,45.76
2023-03-27T12:39:02.294Z,45.44
2023-03-27T12:40:02.334Z,46.73
2023-03-27T12:41:02.246Z,46.25
2023-03-27T12:42:02.265Z,46.41
2023-03-27T12:43:02.281Z,46.89
2023-03-27T12:44:02.268Z,45.44
2023-03-27T12:45:02.290Z,46.57
2023-03-27T12:46:02.399Z,55.59
2023-03-27T12:47:03.383Z,55.75
2023-03-27T12:48:02.283Z,56.72
2023-03-27T12:49:02.246Z,56.88
2023-03-27T12:50:02.220Z,56.56
2023-03-27T12:51:02.230Z,57.04
2023-03-27T12:52:02.204Z,56.56
2023-03-27T12:53:02.196Z,48.18